createdAt,value
2022-09-28T00:03:24.257Z,92700.00
2022-09-28T00:07:26.355Z,92704.00
2022-09-28T00:11:29.276Z,92704.00
2022-09-28T00:15:41.457Z,92698.00
2022-09-28T00:19:46.107Z,92699.00
2022-09-28T00:28:35.412Z,92703.00
2022-09-28T00:32:39.788Z,92700.00
2022-09-28T00:36:49.747Z,92698.00
2022-09-28T00:40:56.616Z,92695.00
2022-09-28T00:44:59.529Z,92691.00
2022-09-28T00:49:07.590Z,92690.00
2022-09-28T00:53:09.687Z,92687.00
2022-09-28T00:57:12.438Z,92683.00
2022-09-28T01:01:14.690Z,92687.00
2022-09-28T01:06:06.751Z,92678.00
2022-09-28T01:10:10.137Z,92674.00
2022-09-28T01:15:05.644Z,92684.00
2022-09-28T01:19:17.252Z,92666.00
2022-09-28T01:24:03.093Z,92657.00
2022-09-28T01:29:13.381Z,92655.00
2022-09-28T01:34:05.333Z,92670.00
2022-09-28T01:38:25.389Z,92668.00
2022-09-28T01:43:10.736Z,92654.00
2022-09-28T01:47:16.883Z,92655.00
2022-09-28T01:51:53.886Z,92652.00
2022-09-28T01:56:02.050Z,92653.00
2022-09-28T02:00:29.460Z,92651.00
2022-09-28T02:04:51.249Z,92660.00
2022-09-28T02:08:59.405Z,92667.00
2022-09-28T02:13:37.667Z,92670.00
2022-09-28T02:17:41.633Z,92664.00
2022-09-28T02:21:54.053Z,92669.00
2022-09-28T02:26:03.497Z,92670.00
2022-09-28T02:30:19.504Z,92654.00
2022-09-28T02:35:33.795Z,92649.00
2022-09-28T02:40:09.802Z,92653.00
2022-09-28T02:44:44.676Z,92659.00
2022-09-28T02:49:10.625Z,92650.00
2022-09-28T02:53:53.011Z,92641.00
2022-09-28T02:58:33.481Z,92639.00
2022-09-28T03:02:51.745Z,92648.00
2022-09-28T03:07:02.541Z,92652.00
2022-09-28T03:11:10.298Z,92648.00
2022-09-28T03:16:02.854Z,92649.00
2022-09-28T03:20:06.234Z,92641.00
2022-09-28T03:24:33.478Z,92649.00
2022-09-28T03:28:41.355Z,92639.00
2022-09-28T03:32:59.438Z,92616.00
2022-09-28T03:38:02.124Z,92620.00
2022-09-28T03:42:07.155Z,92627.00
2022-09-28T03:46:13.549Z,92624.00
2022-09-28T03:50:21.111Z,92620.00
2022-09-28T03:54:26.018Z,92613.00
2022-09-28T03:58:29.809Z,92613.00
2022-09-28T04:02:32.399Z,92625.00
2022-09-28T04:06:34.493Z,92607.00
2022-09-28T04:11:06.273Z,92612.00
2022-09-28T04:15:09.344Z,92610.00
2022-09-28T04:20:05.045Z,92602.00
2022-09-28T04:24:30.374Z,92599.00
2022-09-28T04:33:20.988Z,92577.00
2022-09-28T04:37:27.288Z,92566.00
2022-09-28T04:41:29.461Z,92566.00
2022-09-28T04:45:35.400Z,92570.00
2022-09-28T04:49:43.483Z,92571.00
2022-09-28T04:53:51.092Z,92564.00
2022-09-28T04:57:56.110Z,92567.00
2022-09-28T05:01:58.421Z,92557.00
2022-09-28T05:06:34.633Z,92550.00
2022-09-28T05:11:34.146Z,92550.00
2022-09-28T05:15:42.805Z,92541.00
2022-09-28T05:19:51.628Z,92544.00
2022-09-28T05:23:56.190Z,92541.00
2022-09-28T05:27:59.177Z,92533.00
2022-09-28T05:32:21.494Z,92518.00
2022-09-28T05:36:51.327Z,92517.00
2022-09-28T05:41:18.985Z,92509.00
2022-09-28T05:49:39.134Z,92495.00
2022-09-28T05:53:41.063Z,92487.00
2022-09-28T05:57:43.296Z,92473.00
2022-09-28T06:01:59.562Z,92472.00
2022-09-28T06:06:02.776Z,92475.00
2022-09-28T06:10:26.652Z,92466.00
2022-09-28T06:14:34.571Z,92450.00
2022-09-28T06:18:37.027Z,92449.00
2022-09-28T06:23:22.904Z,92450.00
2022-09-28T06:27:25.024Z,92449.00
2022-09-28T06:31:30.159Z,92455.00
2022-09-28T06:35:35.430Z,92453.00
2022-09-28T06:39:38.840Z,92458.00
2022-09-28T06:43:48.267Z,92471.00
2022-09-28T06:48:01.189Z,92476.00
2022-09-28T06:52:24.884Z,92476.00
2022-09-28T06:56:53.234Z,92469.00
2022-09-28T07:01:04.518Z,92466.00
2022-09-28T07:05:19.537Z,92469.00
2022-09-28T07:09:55.259Z,92458.00
2022-09-28T07:14:42.840Z,92458.00
2022-09-28T07:18:47.785Z,92451.00
2022-09-28T07:22:57.885Z,92438.00
2022-09-28T07:27:31.912Z,92444.00
2022-09-28T07:32:10.069Z,92447.00
2022-09-28T07:36:49.612Z,92445.00
2022-09-28T07:41:22.615Z,92443.00
2022-09-28T07:45:26.398Z,92451.00
2022-09-28T07:49:28.550Z,92451.00
2022-09-28T07:53:48.630Z,92458.00
2022-09-28T07:58:52.145Z,92442.00
2022-09-28T08:04:25.467Z,92432.00
2022-09-28T08:08:30.084Z,92429.00
2022-09-28T08:12:36.144Z,92419.00
2022-09-28T08:17:16.263Z,92417.00
2022-09-28T08:21:45.853Z,92414.00
2022-09-28T08:25:50.410Z,92399.00
2022-09-28T08:30:00.071Z,92400.00
2022-09-28T08:34:19.811Z,92391.00
2022-09-28T08:38:49.821Z,92404.00
2022-09-28T08:43:48.253Z,92417.00
2022-09-28T08:48:35.109Z,92404.00
2022-09-28T08:53:19.506Z,92403.00
2022-09-28T08:58:02.438Z,92409.00
2022-09-28T09:02:34.630Z,92415.00
2022-09-28T09:07:20.817Z,92424.00
2022-09-28T09:11:48.913Z,92425.00
2022-09-28T09:16:59.953Z,92424.00
2022-09-28T09:26:43.699Z,92414.00
2022-09-28T09:36:47.453Z,92402.00
2022-09-28T09:41:22.556Z,92408.00
2022-09-28T09:46:23.001Z,92406.00
2022-09-28T09:50:57.957Z,92412.00
2022-09-28T09:55:02.300Z,92409.00
2022-09-28T10:04:40.944Z,92408.00
2022-09-28T10:09:32.906Z,92397.00
2022-09-28T10:13:54.197Z,92395.00
2022-09-28T10:18:23.872Z,92397.00
2022-09-28T10:22:58.737Z,92401.00
2022-09-28T10:27:32.088Z,92395.00
2022-09-28T10:31:59.171Z,92393.00
2022-09-28T10:36:10.204Z,92403.00
2022-09-28T10:40:40.022Z,92408.00
2022-09-28T10:44:55.968Z,92407.00
2022-09-28T10:49:28.653Z,92418.00
2022-09-28T10:53:37.275Z,92398.00
2022-09-28T10:57:40.861Z,92402.00
2022-09-28T11:01:44.739Z,92418.00
2022-09-28T11:06:15.574Z,92401.00
2022-09-28T11:10:23.164Z,92397.00
2022-09-28T11:14:42.765Z,92394.00
2022-09-28T11:18:59.126Z,92385.00
2022-09-28T11:24:07.582Z,92389.00
2022-09-28T11:28:50.315Z,92399.00
2022-09-28T11:33:12.383Z,92390.00
2022-09-28T11:37:46.217Z,92405.00
2022-09-28T11:42:23.649Z,92412.00
2022-09-28T11:46:33.931Z,92412.00
2022-09-28T11:51:03.166Z,92412.00
2022-09-28T11:55:21.492Z,92411.00
2022-09-28T11:59:29.132Z,92431.00
2022-09-28T12:10:23.589Z,92441.00
2022-09-28T12:14:38.821Z,92435.00
2022-09-28T12:19:09.005Z,92435.00
2022-09-28T12:28:18.830Z,92420.00
2022-09-28T12:33:24.288Z,92401.00
2022-09-28T12:38:11.241Z,92411.00
2022-09-28T12:43:13.041Z,92412.00
2022-09-28T12:47:40.373Z,92407.00
2022-09-28T12:51:52.667Z,92385.00
2022-09-28T12:56:34.594Z,92411.00
2022-09-28T13:01:14.382Z,92407.00
2022-09-28T13:05:30.221Z,92409.00
2022-09-28T13:09:58.776Z,92409.00
2022-09-28T13:14:49.197Z,92407.00
2022-09-28T13:19:02.285Z,92399.00
2022-09-28T13:23:31.228Z,92412.00
2022-09-28T13:27:52.934Z,92407.00
2022-09-28T13:32:01.616Z,92400.00
2022-09-28T13:36:26.175Z,92410.00
2022-09-28T13:41:29.208Z,92423.00
2022-09-28T13:46:09.278Z,92426.00
2022-09-28T13:50:49.815Z,92433.00
2022-09-28T13:55:25.018Z,92434.00
2022-09-28T13:59:44.667Z,92437.00
2022-09-28T14:04:19.402Z,92449.00
2022-09-28T14:14:44.207Z,92451.00
2022-09-28T14:19:13.265Z,92451.00
2022-09-28T14:23:38.637Z,92452.00
2022-09-28T14:28:17.866Z,92458.00
2022-09-28T14:32:25.486Z,92468.00
2022-09-28T14:37:11.118Z,92478.00
2022-09-28T14:41:36.919Z,92466.00
2022-09-28T14:46:28.899Z,92482.00
2022-09-28T14:51:15.761Z,92470.00
2022-09-28T14:55:52.376Z,92489.00
2022-09-28T14:59:58.740Z,92483.00
2022-09-28T15:04:04.814Z,92485.00
2022-09-28T15:08:08.089Z,92480.00
2022-09-28T15:12:19.004Z,92480.00
2022-09-28T15:16:24.453Z,92476.00
2022-09-28T15:20:38.131Z,92476.00
2022-09-28T15:24:40.751Z,92471.00
2022-09-28T15:29:03.402Z,92473.00
2022-09-28T15:33:24.718Z,92463.00
2022-09-28T15:37:44.313Z,92480.00
2022-09-28T15:41:50.041Z,92472.00
2022-09-28T15:46:04.598Z,92480.00
2022-09-28T15:50:36.803Z,92477.00
2022-09-28T15:54:43.425Z,92488.00
2022-09-28T16:04:23.669Z,92498.00
2022-09-28T16:08:39.083Z,92514.00
2022-09-28T16:12:57.328Z,92518.00
2022-09-28T16:17:00.697Z,92515.00
2022-09-28T16:21:28.793Z,92516.00
2022-09-28T16:25:31.502Z,92506.00
2022-09-28T16:29:41.403Z,92510.00
2022-09-28T16:34:11.396Z,92505.00
2022-09-28T16:38:15.836Z,92508.00
2022-09-28T16:42:17.747Z,92501.00
2022-09-28T16:46:23.647Z,92504.00
2022-09-28T16:50:28.941Z,92509.00
2022-09-28T16:54:49.685Z,92524.00
2022-09-28T16:58:54.930Z,92527.00
2022-09-28T17:02:58.507Z,92535.00
2022-09-28T17:07:21.290Z,92536.00
2022-09-28T17:11:57.122Z,92538.00
2022-09-28T17:16:17.991Z,92542.00
2022-09-28T17:20:30.240Z,92545.00
2022-09-28T17:25:00.265Z,92542.00
2022-09-28T17:29:02.817Z,92557.00
2022-09-28T17:33:05.031Z,92555.00
2022-09-28T17:37:14.655Z,92549.00
2022-09-28T17:41:23.242Z,92549.00
2022-09-28T17:45:52.291Z,92547.00
2022-09-28T17:55:24.658Z,92555.00
2022-09-28T17:59:28.178Z,92572.00
2022-09-28T18:03:30.263Z,92567.00
2022-09-28T18:08:28.904Z,92591.00
2022-09-28T18:12:31.370Z,92606.00
2022-09-28T18:16:33.254Z,92608.00
2022-09-28T18:21:25.786Z,92617.00
2022-09-28T18:25:27.698Z,92610.00
2022-09-28T18:30:13.168Z,92629.00
2022-09-28T18:39:50.413Z,92634.00
2022-09-28T18:43:52.393Z,92632.00
2022-09-28T18:48:27.772Z,92644.00
2022-09-28T18:52:53.910Z,92634.00
2022-09-28T18:57:24.052Z,92640.00
2022-09-28T19:01:30.898Z,92633.00
2022-09-28T19:05:35.378Z,92640.00
2022-09-28T19:09:53.868Z,92635.00
2022-09-28T19:14:21.197Z,92640.00
2022-09-28T19:18:23.305Z,92648.00
2022-09-28T19:22:25.735Z,92645.00
2022-09-28T19:27:03.930Z,92645.00
2022-09-28T19:31:09.229Z,92632.00
2022-09-28T19:35:13.685Z,92640.00
2022-09-28T19:39:15.799Z,92646.00
2022-09-28T19:43:32.447Z,92645.00
2022-09-28T19:47:35.903Z,92652.00
2022-09-28T19:51:46.981Z,92639.00
2022-09-28T19:56:05.301Z,92655.00
2022-09-28T20:00:08.357Z,92674.00
2022-09-28T20:05:00.864Z,92663.00
2022-09-28T20:09:03.592Z,92668.00
2022-09-28T20:13:37.958Z,92669.00
2022-09-28T20:17:41.143Z,92662.00
2022-09-28T20:21:45.518Z,92659.00
2022-09-28T20:25:52.571Z,92682.00
2022-09-28T20:29:54.484Z,92678.00
2022-09-28T20:33:56.832Z,92670.00
2022-09-28T20:37:59.297Z,92665.00
2022-09-28T20:42:01.398Z,92673.00
2022-09-28T20:46:05.018Z,92679.00
2022-09-28T20:50:07.530Z,92670.00
2022-09-28T20:54:09.531Z,92689.00
2022-09-28T20:58:38.253Z,92691.00
2022-09-28T21:02:44.758Z,92696.00
2022-09-28T21:06:46.783Z,92688.00
2022-09-28T21:10:52.801Z,92698.00
2022-09-28T21:14:54.922Z,92704.00
2022-09-28T21:18:59.500Z,92703.00
2022-09-28T21:23:01.508Z,92706.00
2022-09-28T21:27:03.658Z,92710.00
2022-09-28T21:31:08.549Z,92720.00
2022-09-28T21:35:11.670Z,92717.00
2022-09-28T21:39:15.035Z,92722.00
2022-09-28T21:49:08.321Z,92730.00
2022-09-28T21:53:10.286Z,92723.00
2022-09-28T21:57:12.316Z,92716.00
2022-09-28T22:01:20.162Z,92723.00
2022-09-28T22:05:22.429Z,92723.00
2022-09-28T22:09:24.578Z,92721.00
2022-09-28T22:13:28.518Z,92721.00
2022-09-28T22:17:32.733Z,92722.00
2022-09-28T22:21:35.140Z,92721.00
2022-09-28T22:25:39.584Z,92729.00
2022-09-28T22:29:42.603Z,92728.00
2022-09-28T22:33:44.800Z,92726.00
2022-09-28T22:38:53.285Z,92740.00
2022-09-28T22:43:23.478Z,92741.00
2022-09-28T22:47:42.441Z,92733.00
2022-09-28T22:51:45.213Z,92727.00
2022-09-28T22:55:48.374Z,92722.00
2022-09-28T22:59:54.258Z,92723.00
2022-09-28T23:04:04.415Z,92730.00
2022-09-28T23:08:06.485Z,92742.00
2022-09-28T23:12:12.566Z,92729.00
2022-09-28T23:16:15.074Z,92721.00
2022-09-28T23:20:17.212Z,92743.00
2022-09-28T23:24:50.291Z,92744.00
2022-09-28T23:28:53.292Z,92733.00
2022-09-28T23:32:55.452Z,92742.00
2022-09-28T23:37:00.508Z,92752.00
2022-09-28T23:41:02.887Z,92752.00
2022-09-28T23:45:05.189Z,92746.00
2022-09-28T23:49:34.100Z,92753.00
2022-09-28T23:54:00.010Z,92754.00
2022-09-28T23:58:02.094Z,92755.00
